Airfield :
LOGIN :

Register | Disclaimer

   EN    FR    IT 

 










Legend :    VFR   Marginal VFR   IFR   Intensive IFR   Very Intensive IFR
Visi :
Ceiling :
>= 8 km
>= 3000ft
5 to 8 km
1000 to 3000 ft
1500m to 5 km
500 to 1000 ft
800 to 1500m
200 to 500 ft
< 800m
< 200 ft
Symbols :   Thunderstorms  Fog  Heavy snow  Heavy precipitations  Wind > 20 kt
SIGMETs :     Misc.  Thunderstorms  Icing  Turbulence  Mountain Waves  Volcanic Ashes






- Airport Elevation : 978 ft
- IATA code : LNZ


LOWL - Linz

CURRENT METAR :
  • 110020Z AUTO 12003KT 9999 NCD 22/17 Q1016

EXPIRED METARs :
  • 102350Z AUTO VRB02KT 9999 NCD 21/17 Q1016
  • 102320Z AUTO 12003KT 9999 NCD 22/16 Q1016
  • 102250Z AUTO 05003KT 9999 NCD 23/16 Q1016
  • 102220Z AUTO 06005KT 9999 NCD 23/16 Q1016
  • 102150Z AUTO 06007KT 9999 NCD 23/16 Q1016

TAF TAF LOWL
Valid from the 11 at 00:00 until the 12 at 00:00 UTC


102315Z 1100/1124 VRB03KT CAVOK TX28/1114Z TN18/1104Z
BECMG 1110/1112 07006KT 9999 FEW050CB
PROB30
TEMPO 1113/1119 -TSRA



MET'MAP, your aeronautical weather chart ! - Copyright ORBIFLY December 2007 - Disclaimer

ORBIFLY MET'MAP TEAM :

Programming & Development : Alexandra Zaïnal
Concept & original design : Baudouin d'Aumeries
Assistance for programming : Marc-Olivier Méhu
Technical & hardware support : Manuel Goepfert

Contact : metmap@orbifly.com




SOURCES & CREDITS :

   NOAA